Time;durP1;ratioP1;P1;durP2;ratioP2;P2;SDS_P1;SDS_P2;PMS_P1;PMS_P2;Temp;Humidity;BMP_temperature;BMP_pressure;BME280_temperature;BME280_humidity;BME280_pressure;Samples;Min_cycle;Max_cycle;Signal;HPM_P1;HPM_P2
2022/07/24 00:01:35;;;;;;;4.43;2.70;;;;;;;;;;5011521;28;20030;-84
2022/07/24 00:04:07;;;;;;;3.17;2.45;;;;;;;;;;5010557;28;20064;-83
2022/07/24 00:06:33;;;;;;;6.32;2.90;;;;;;;;;;5008319;28;20077;-80
2022/07/24 00:08:59;;;;;;;3.83;3.28;;;;;;;;;;4976602;28;20041;-82
2022/07/24 00:11:25;;;;;;;5.97;3.22;;;;;;;;;;5011836;28;20033;-80
2022/07/24 00:13:54;;;;;;;3.97;3.05;;;;;;;;;;5010392;28;20042;-84
2022/07/24 00:16:20;;;;;;;4.05;3.47;;;;;;;;;;5011074;28;20049;-83
2022/07/24 00:18:50;;;;;;;3.70;3.40;;;;;;;;;;5009019;28;20502;-81
2022/07/24 00:21:19;;;;;;;8.80;3.63;;;;;;;;;;5010672;28;20034;-81
2022/07/24 00:23:45;;;;;;;4.20;3.63;;;;;;;;;;5009139;28;20084;-86
2022/07/24 00:26:11;;;;;;;4.40;3.80;;;;;;;;;;5014834;28;20041;-80
2022/07/24 00:28:38;;;;;;;5.82;4.10;;;;;;;;;;4996030;28;20111;-82
2022/07/24 00:31:13;;;;;;;6.82;3.50;;;;;;;;;;4980046;28;20481;-84
2022/07/24 00:33:39;;;;;;;6.63;3.50;;;;;;;;;;5029010;28;20067;-82
2022/07/24 00:36:05;;;;;;;6.72;3.72;;;;;;;;;;5012542;28;20037;-83
2022/07/24 00:38:31;;;;;;;13.75;3.60;;;;;;;;;;5028521;28;20076;-83
2022/07/24 00:41:00;;;;;;;4.95;3.63;;;;;;;;;;5027781;28;20029;-81
2022/07/24 00:43:26;;;;;;;4.95;3.58;;;;;;;;;;5031479;28;20053;-81
2022/07/24 00:45:52;;;;;;;4.78;3.70;;;;;;;;;;5025835;28;20052;-82
2022/07/24 00:48:18;;;;;;;7.53;3.38;;;;;;;;;;5027628;28;20041;-80
2022/07/24 00:50:45;;;;;;;6.63;3.33;;;;;;;;;;5029545;28;20041;-83
2022/07/24 00:53:11;;;;;;;5.32;3.72;;;;;;;;;;5033790;28;20489;-82
2022/07/24 00:55:37;;;;;;;7.18;4.40;;;;;;;;;;4981683;28;20041;-85
2022/07/24 00:58:10;;;;;;;6.43;4.00;;;;;;;;;;5029729;28;20338;-82
2022/07/24 01:00:36;;;;;;;5.00;4.30;;;;;;;;;;5003284;28;20043;-84
2022/07/24 01:03:02;;;;;;;5.50;3.85;;;;;;;;;;5031556;28;20049;-80
2022/07/24 01:05:28;;;;;;;8.18;4.50;;;;;;;;;;5030280;28;20631;-81
2022/07/24 01:07:54;;;;;;;7.15;4.70;;;;;;;;;;5028509;28;20580;-83
2022/07/24 01:10:20;;;;;;;6.47;4.43;;;;;;;;;;5033966;28;20549;-82
2022/07/24 01:12:47;;;;;;;10.65;4.55;;;;;;;;;;5036386;28;20132;-81
2022/07/24 01:15:13;;;;;;;11.30;4.80;;;;;;;;;;5045324;28;20033;-80
2022/07/24 01:17:40;;;;;;;5.72;4.88;;;;;;;;;;5008718;28;20044;-80
2022/07/24 01:20:07;;;;;;;6.07;4.80;;;;;;;;;;4994397;28;20033;-81
2022/07/24 01:22:39;;;;;;;5.20;4.80;;;;;;;;;;4989545;28;20129;-82
2022/07/24 01:25:06;;;;;;;7.82;4.90;;;;;;;;;;5006187;28;20285;-82
2022/07/24 01:27:32;;;;;;;5.40;4.63;;;;;;;;;;5002655;28;20057;-83
2022/07/24 01:29:58;;;;;;;6.75;5.00;;;;;;;;;;5002978;28;20041;-80
2022/07/24 01:32:37;;;;;;;6.20;5.10;;;;;;;;;;5002924;28;20050;-81
2022/07/24 01:35:09;;;;;;;10.30;5.05;;;;;;;;;;4986675;28;20055;-80
2022/07/24 01:37:41;;;;;;;7.75;4.88;;;;;;;;;;5003157;28;20169;-84
2022/07/24 01:40:07;;;;;;;7.50;5.30;;;;;;;;;;4985109;28;20042;-79
2022/07/24 01:42:33;;;;;;;6.25;5.45;;;;;;;;;;4990813;28;20131;-81
2022/07/24 01:45:09;;;;;;;6.07;5.40;;;;;;;;;;5006040;28;20041;-82
2022/07/24 01:47:43;;;;;;;5.97;5.18;;;;;;;;;;5006921;28;20165;-81
2022/07/24 01:50:09;;;;;;;;;;;;;;;;;;5006222;28;20041;-81
2022/07/24 01:52:35;;;;;;;10.50;6.10;;;;;;;;;;5013262;28;19921;-82
2022/07/24 01:55:01;;;;;;;7.72;5.78;;;;;;;;;;5013389;28;20045;-80
2022/07/24 01:57:27;;;;;;;6.18;5.57;;;;;;;;;;5029809;28;20052;-81
2022/07/24 01:59:53;;;;;;;6.38;5.80;;;;;;;;;;5026474;28;20151;-81
2022/07/24 02:02:19;;;;;;;7.60;5.40;;;;;;;;;;5027842;28;20045;-81
2022/07/24 02:04:45;;;;;;;8.98;5.45;;;;;;;;;;5020976;28;20049;-81
2022/07/24 02:07:11;;;;;;;7.07;5.65;;;;;;;;;;5026456;28;20040;-82
2022/07/24 02:09:37;;;;;;;6.55;5.70;;;;;;;;;;5029078;28;20176;-82
2022/07/24 02:12:05;;;;;;;9.50;5.68;;;;;;;;;;5033532;28;20045;-84
2022/07/24 02:14:31;;;;;;;6.38;5.75;;;;;;;;;;5018566;28;20735;-83
2022/07/24 02:16:58;;;;;;;8.23;6.18;;;;;;;;;;5034513;28;20097;-83
2022/07/24 02:19:26;;;;;;;8.18;6.10;;;;;;;;;;5034405;28;20037;-83
2022/07/24 02:21:52;;;;;;;8.57;5.93;;;;;;;;;;4998942;28;20057;-82
2022/07/24 02:24:19;;;;;;;11.32;6.10;;;;;;;;;;5016240;28;20037;-83
2022/07/24 02:26:56;;;;;;;11.45;6.47;;;;;;;;;;5015617;28;20063;-81
2022/07/24 02:29:22;;;;;;;8.00;6.63;;;;;;;;;;5031935;28;20501;-82
2022/07/24 02:31:49;;;;;;;7.85;6.20;;;;;;;;;;5006328;28;20037;-87
2022/07/24 02:34:18;;;;;;;7.40;6.60;;;;;;;;;;5032571;28;20094;-88
2022/07/24 02:36:44;;;;;;;8.55;6.50;;;;;;;;;;5034643;28;20053;-83
2022/07/24 02:39:10;;;;;;;6.72;6.03;;;;;;;;;;5029565;28;20038;-85
2022/07/24 02:41:36;;;;;;;7.82;6.10;;;;;;;;;;5010342;28;20253;-83
2022/07/24 02:44:02;;;;;;;6.75;6.10;;;;;;;;;;5025703;28;20069;-82
2022/07/24 02:46:28;;;;;;;8.63;6.47;;;;;;;;;;5028205;28;20053;-82
2022/07/24 02:48:54;;;;;;;8.38;6.38;;;;;;;;;;5030499;28;20038;-82
2022/07/24 02:51:20;;;;;;;8.13;6.55;;;;;;;;;;5030774;28;20449;-84
2022/07/24 02:53:46;;;;;;;9.55;6.40;;;;;;;;;;5029391;28;20156;-83
2022/07/24 02:56:15;;;;;;;7.97;6.53;;;;;;;;;;5030018;28;20038;-83
2022/07/24 02:58:41;;;;;;;7.43;6.43;;;;;;;;;;5032991;28;20409;-83
2022/07/24 03:01:08;;;;;;;8.20;6.20;;;;;;;;;;5029139;28;20382;-83
2022/07/24 03:03:35;;;;;;;7.43;6.40;;;;;;;;;;5013327;28;20045;-81
2022/07/24 03:06:01;;;;;;;9.95;6.45;;;;;;;;;;4996946;28;20124;-82
2022/07/24 03:08:27;;;;;;;7.45;6.05;;;;;;;;;;5013359;28;20037;-82
2022/07/24 03:10:53;;;;;;;7.85;6.55;;;;;;;;;;5030965;28;20391;-80
2022/07/24 03:13:19;;;;;;;8.88;6.45;;;;;;;;;;5028548;28;20037;-83
2022/07/24 03:15:45;;;;;;;7.18;6.10;;;;;;;;;;5033424;28;20034;-82
2022/07/24 03:18:11;;;;;;;8.05;6.65;;;;;;;;;;5013515;28;20120;-82
2022/07/24 03:20:37;;;;;;;7.25;6.25;;;;;;;;;;5014313;28;20049;-81
2022/07/24 03:23:03;;;;;;;10.40;7.13;;;;;;;;;;5031452;28;20725;-82
2022/07/24 03:25:29;;;;;;;11.23;6.47;;;;;;;;;;5031141;28;20111;-81
2022/07/24 03:27:57;;;;;;;9.43;6.82;;;;;;;;;;5028901;28;20041;-86
2022/07/24 03:30:23;;;;;;;6.85;6.25;;;;;;;;;;5015219;28;20408;-84
2022/07/24 03:32:49;;;;;;;8.00;6.45;;;;;;;;;;5032050;28;20046;-81
2022/07/24 03:35:15;;;;;;;8.75;6.53;;;;;;;;;;5018147;28;20494;-84
2022/07/24 03:37:41;;;;;;;8.52;6.78;;;;;;;;;;5031093;28;20088;-86
2022/07/24 03:40:07;;;;;;;8.18;7.38;;;;;;;;;;5016447;28;20075;-84
2022/07/24 03:42:34;;;;;;;8.38;6.60;;;;;;;;;;5017118;28;20041;-85
2022/07/24 03:45:09;;;;;;;10.07;7.05;;;;;;;;;;5032894;28;20065;-86
2022/07/24 03:47:35;;;;;;;8.05;6.45;;;;;;;;;;5016440;28;20049;-85
2022/07/24 03:50:02;;;;;;;11.60;6.88;;;;;;;;;;5033741;28;20338;-86
2022/07/24 03:52:28;;;;;;;10.07;6.63;;;;;;;;;;5032577;28;20049;-84
2022/07/24 03:54:55;;;;;;;10.48;6.95;;;;;;;;;;5030680;28;20401;-85
2022/07/24 03:57:21;;;;;;;8.07;6.88;;;;;;;;;;5013628;28;20038;-82
2022/07/24 03:59:50;;;;;;;7.07;6.47;;;;;;;;;;4989679;28;20437;-83
2022/07/24 04:02:16;;;;;;;11.18;6.63;;;;;;;;;;5028933;28;20152;-83
2022/07/24 04:04:42;;;;;;;10.18;6.45;;;;;;;;;;5032349;28;20231;-81
2022/07/24 04:07:08;;;;;;;7.05;6.35;;;;;;;;;;5015273;28;20052;-80
2022/07/24 04:09:34;;;;;;;8.57;7.30;;;;;;;;;;5032024;28;20723;-83
2022/07/24 04:12:00;;;;;;;7.30;6.43;;;;;;;;;;5032115;28;20049;-81
2022/07/24 04:14:27;;;;;;;7.50;6.80;;;;;;;;;;5013867;28;20470;-81
2022/07/24 04:16:53;;;;;;;8.98;7.32;;;;;;;;;;5000625;28;20364;-85
2022/07/24 04:19:19;;;;;;;8.95;6.60;;;;;;;;;;5031179;28;20083;-84
2022/07/24 04:21:45;;;;;;;7.53;6.68;;;;;;;;;;5042321;28;20053;-82
2022/07/24 04:24:13;;;;;;;8.52;6.53;;;;;;;;;;5046613;28;20489;-81
2022/07/24 04:26:39;;;;;;;10.95;7.00;;;;;;;;;;4979912;28;20064;-82
2022/07/24 04:29:05;;;;;;;7.38;6.53;;;;;;;;;;5020202;28;20061;-82
2022/07/24 04:31:32;;;;;;;13.25;6.50;;;;;;;;;;5025073;28;20130;-80
2022/07/24 04:33:58;;;;;;;7.95;6.78;;;;;;;;;;5025970;28;20041;-83
2022/07/24 04:36:24;;;;;;;7.35;6.57;;;;;;;;;;5025429;28;20132;-81
2022/07/24 04:38:51;;;;;;;7.70;7.00;;;;;;;;;;5025488;28;20505;-80
2022/07/24 04:41:17;;;;;;;11.65;7.18;;;;;;;;;;5006367;28;20524;-80
2022/07/24 04:43:44;;;;;;;8.30;6.88;;;;;;;;;;5026209;28;20049;-80
2022/07/24 04:46:10;;;;;;;8.35;6.85;;;;;;;;;;5010395;28;20498;-81
2022/07/24 04:48:36;;;;;;;7.28;6.50;;;;;;;;;;4992873;28;20052;-81
2022/07/24 04:51:02;;;;;;;8.07;6.88;;;;;;;;;;5020221;28;20046;-80
2022/07/24 04:53:30;;;;;;;7.03;6.38;;;;;;;;;;4996673;28;20041;-80
2022/07/24 04:55:57;;;;;;;9.60;6.60;;;;;;;;;;5021240;28;20049;-82
2022/07/24 04:58:24;;;;;;;8.90;6.60;;;;;;;;;;5007050;28;20462;-84
2022/07/24 05:00:50;;;;;;;8.32;7.50;;;;;;;;;;5005663;28;20084;-82
2022/07/24 05:03:21;;;;;;;8.35;6.88;;;;;;;;;;5028216;28;20116;-81
2022/07/24 05:05:47;;;;;;;7.93;7.05;;;;;;;;;;5026161;28;20037;-81
2022/07/24 05:08:13;;;;;;;11.57;7.07;;;;;;;;;;5022266;28;20136;-81
2022/07/24 05:10:40;;;;;;;8.25;7.25;;;;;;;;;;4995846;28;20142;-81
2022/07/24 05:13:06;;;;;;;9.80;7.20;;;;;;;;;;5031565;28;20030;-84
2022/07/24 05:15:32;;;;;;;7.80;7.00;;;;;;;;;;5011725;28;20033;-79
2022/07/24 05:17:58;;;;;;;13.95;7.35;;;;;;;;;;5029786;28;20056;-81
2022/07/24 05:20:24;;;;;;;8.07;7.25;;;;;;;;;;5032585;28;20739;-80
2022/07/24 05:22:50;;;;;;;9.82;6.85;;;;;;;;;;5026310;28;20548;-80
2022/07/24 05:25:16;;;;;;;11.68;6.63;;;;;;;;;;5027442;28;20494;-83
2022/07/24 05:27:42;;;;;;;9.48;7.03;;;;;;;;;;5019708;28;20089;-81
2022/07/24 05:30:09;;;;;;;9.48;6.90;;;;;;;;;;5022479;28;20049;-80
2022/07/24 05:32:35;;;;;;;6.85;6.25;;;;;;;;;;5035442;28;20052;-81
2022/07/24 05:35:01;;;;;;;8.77;6.65;;;;;;;;;;5032789;28;20504;-84
2022/07/24 05:37:27;;;;;;;7.95;6.57;;;;;;;;;;5032889;28;20042;-82
2022/07/24 05:39:53;;;;;;;7.68;6.85;;;;;;;;;;5014169;28;20133;-82
2022/07/24 05:42:19;;;;;;;7.32;6.43;;;;;;;;;;5025317;28;20386;-81
2022/07/24 05:44:45;;;;;;;9.93;6.55;;;;;;;;;;5025196;28;20041;-81
2022/07/24 05:47:11;;;;;;;8.40;6.57;;;;;;;;;;5030087;28;20041;-80
2022/07/24 05:49:37;;;;;;;10.43;6.32;;;;;;;;;;5029398;28;20041;-80
2022/07/24 05:52:04;;;;;;;7.18;6.47;;;;;;;;;;5009356;28;20049;-80
2022/07/24 05:54:30;;;;;;;9.38;6.70;;;;;;;;;;5027514;28;20052;-81
2022/07/24 05:56:59;;;;;;;9.00;6.72;;;;;;;;;;5028512;28;20069;-81
2022/07/24 05:59:25;;;;;;;16.45;6.75;;;;;;;;;;5032046;28;20068;-81
2022/07/24 06:01:51;;;;;;;9.88;6.85;;;;;;;;;;5000373;28;20041;-79
2022/07/24 06:04:17;;;;;;;11.75;7.10;;;;;;;;;;5034917;28;20029;-81
2022/07/24 06:06:43;;;;;;;7.63;6.85;;;;;;;;;;5035992;28;20236;-81
2022/07/24 06:09:09;;;;;;;8.55;6.53;;;;;;;;;;5030162;28;20056;-79
2022/07/24 06:11:38;;;;;;;9.75;7.28;;;;;;;;;;5032094;28;20048;-80
2022/07/24 06:14:04;;;;;;;15.98;7.85;;;;;;;;;;5001767;28;20041;-80
2022/07/24 06:16:30;;;;;;;7.82;7.03;;;;;;;;;;5025953;28;20045;-79
2022/07/24 06:18:56;;;;;;;11.23;8.07;;;;;;;;;;5031496;28;20064;-82
2022/07/24 06:21:23;;;;;;;11.13;7.80;;;;;;;;;;5036439;28;20784;-81
2022/07/24 06:23:49;;;;;;;13.95;7.43;;;;;;;;;;5018729;28;20037;-86
2022/07/24 06:26:15;;;;;;;11.55;8.10;;;;;;;;;;5029291;28;20463;-81
2022/07/24 06:28:41;;;;;;;10.75;8.13;;;;;;;;;;5032078;28;20584;-84
2022/07/24 06:31:07;;;;;;;14.63;7.63;;;;;;;;;;5028270;28;20038;-80
2022/07/24 06:33:33;;;;;;;10.27;7.80;;;;;;;;;;5032950;28;20029;-81
2022/07/24 06:35:59;;;;;;;9.55;7.72;;;;;;;;;;5015950;28;20060;-84
2022/07/24 06:38:26;;;;;;;10.77;7.88;;;;;;;;;;5036124;28;20405;-83
2022/07/24 06:40:52;;;;;;;9.13;7.47;;;;;;;;;;5029109;28;20046;-82
2022/07/24 06:43:18;;;;;;;12.13;8.40;;;;;;;;;;5031806;28;20026;-80
2022/07/24 06:45:45;;;;;;;11.82;7.57;;;;;;;;;;5015104;28;20044;-83
2022/07/24 06:48:11;;;;;;;8.55;7.68;;;;;;;;;;5034240;28;20131;-81
2022/07/24 06:50:37;;;;;;;9.07;8.10;;;;;;;;;;5037305;28;20041;-82
2022/07/24 06:53:03;;;;;;;11.30;8.60;;;;;;;;;;5034020;28;20986;-82
2022/07/24 06:55:29;;;;;;;14.45;8.23;;;;;;;;;;5014854;28;20062;-86
2022/07/24 06:57:55;;;;;;;12.52;8.48;;;;;;;;;;5036440;28;20072;-81
2022/07/24 07:00:26;;;;;;;10.15;8.13;;;;;;;;;;5034494;28;20068;-83
2022/07/24 07:02:52;;;;;;;13.45;8.43;;;;;;;;;;5017123;28;20071;-81
2022/07/24 07:05:19;;;;;;;15.02;9.30;;;;;;;;;;5032356;28;20103;-82
2022/07/24 07:07:45;;;;;;;10.35;9.02;;;;;;;;;;5014819;28;20080;-82
2022/07/24 07:10:11;;;;;;;10.20;8.05;;;;;;;;;;5033475;28;20049;-81
2022/07/24 07:12:37;;;;;;;9.63;8.65;;;;;;;;;;5028309;28;20053;-80
2022/07/24 07:15:04;;;;;;;12.38;9.15;;;;;;;;;;5035236;28;20056;-83
2022/07/24 07:17:31;;;;;;;14.18;9.38;;;;;;;;;;5036941;28;20067;-82
2022/07/24 07:19:57;;;;;;;13.70;10.55;;;;;;;;;;5044485;28;20076;-79
2022/07/24 07:22:23;;;;;;;11.27;9.48;;;;;;;;;;5035007;28;20068;-83
2022/07/24 07:24:49;;;;;;;14.15;9.77;;;;;;;;;;5011894;28;20050;-82
2022/07/24 07:27:16;;;;;;;11.52;9.55;;;;;;;;;;5029909;28;20061;-81
2022/07/24 07:29:42;;;;;;;11.90;9.80;;;;;;;;;;5018223;28;20113;-81
2022/07/24 07:32:08;;;;;;;11.48;9.90;;;;;;;;;;5017529;28;20106;-81
2022/07/24 07:34:34;;;;;;;12.65;10.30;;;;;;;;;;5004585;28;20413;-81
2022/07/24 07:37:00;;;;;;;12.15;10.27;;;;;;;;;;5008673;28;20041;-81
2022/07/24 07:39:37;;;;;;;23.02;11.98;;;;;;;;;;4997077;28;20045;-87
2022/07/24 07:42:03;;;;;;;12.90;10.23;;;;;;;;;;5016435;28;20239;-83
2022/07/24 07:44:29;;;;;;;14.50;10.50;;;;;;;;;;5015257;28;20045;-83
2022/07/24 07:46:57;;;;;;;15.48;11.43;;;;;;;;;;5021570;28;20050;-84
2022/07/24 07:49:23;;;;;;;13.15;11.20;;;;;;;;;;5037726;28;20037;-85
2022/07/24 07:51:56;;;;;;;14.82;11.60;;;;;;;;;;5038341;28;20041;-84
2022/07/24 07:54:22;;;;;;;16.02;11.63;;;;;;;;;;5015198;28;20048;-84
2022/07/24 07:56:48;;;;;;;17.55;12.02;;;;;;;;;;5010523;28;20113;-84
2022/07/24 07:59:14;;;;;;;14.25;11.63;;;;;;;;;;5036122;28;20833;-83
2022/07/24 08:01:41;;;;;;;19.08;12.88;;;;;;;;;;5015130;28;20038;-84
2022/07/24 08:04:07;;;;;;;17.58;12.38;;;;;;;;;;5008100;28;20044;-86
2022/07/24 08:06:33;;;;;;;16.30;12.25;;;;;;;;;;5021293;28;20060;-85
2022/07/24 08:08:59;;;;;;;17.15;12.45;;;;;;;;;;5032869;28;20053;-83
2022/07/24 08:11:25;;;;;;;18.30;12.07;;;;;;;;;;5036038;28;20037;-84
2022/07/24 08:13:51;;;;;;;13.20;11.48;;;;;;;;;;5036456;28;20084;-83
2022/07/24 08:16:18;;;;;;;13.23;11.50;;;;;;;;;;5027667;28;20037;-83
2022/07/24 08:18:44;;;;;;;15.57;10.73;;;;;;;;;;5023243;28;20097;-84
2022/07/24 08:21:10;;;;;;;16.67;9.05;;;;;;;;;;5029449;28;20140;-84
2022/07/24 08:23:36;;;;;;;13.25;9.30;;;;;;;;;;5038715;28;20037;-85
2022/07/24 08:26:02;;;;;;;9.23;6.97;;;;;;;;;;5036877;28;20050;-83
2022/07/24 08:28:28;;;;;;;9.18;5.90;;;;;;;;;;5001994;28;20666;-83
2022/07/24 08:30:54;;;;;;;10.05;7.22;;;;;;;;;;5033988;28;20145;-84
2022/07/24 08:33:20;;;;;;;11.35;7.68;;;;;;;;;;5038807;28;20394;-84
2022/07/24 08:35:49;;;;;;;10.32;7.28;;;;;;;;;;5037911;28;20026;-84
2022/07/24 08:38:17;;;;;;;9.68;6.97;;;;;;;;;;5020167;28;20049;-81
2022/07/24 08:40:43;;;;;;;6.53;5.15;;;;;;;;;;5036828;28;20072;-84
2022/07/24 08:43:09;;;;;;;7.25;4.50;;;;;;;;;;5021226;28;20030;-84
2022/07/24 08:45:37;;;;;;;4.15;3.75;;;;;;;;;;5013320;28;20295;-81
2022/07/24 08:48:04;;;;;;;6.07;4.00;;;;;;;;;;5038296;28;20053;-85
2022/07/24 08:50:31;;;;;;;4.38;3.72;;;;;;;;;;5038635;28;20379;-84
2022/07/24 08:52:58;;;;;;;5.20;3.58;;;;;;;;;;5018646;28;20049;-83
2022/07/24 08:55:24;;;;;;;7.90;4.03;;;;;;;;;;5038399;28;20045;-84
2022/07/24 08:57:50;;;;;;;8.60;4.13;;;;;;;;;;5032319;28;20065;-83
2022/07/24 09:00:16;;;;;;;4.50;3.38;;;;;;;;;;5017999;28;20052;-82
2022/07/24 09:02:43;;;;;;;4.80;3.30;;;;;;;;;;5038831;28;20490;-84
2022/07/24 09:05:09;;;;;;;4.07;3.25;;;;;;;;;;5038452;28;20064;-83
2022/07/24 09:07:35;;;;;;;3.78;3.10;;;;;;;;;;5027217;28;20137;-85
2022/07/24 09:10:06;;;;;;;3.65;3.08;;;;;;;;;;5036872;28;20033;-85
2022/07/24 09:12:34;;;;;;;4.00;3.17;;;;;;;;;;5019238;28;20046;-86
2022/07/24 09:15:00;;;;;;;5.18;3.38;;;;;;;;;;5036387;28;20132;-85
2022/07/24 09:17:27;;;;;;;3.97;2.70;;;;;;;;;;5037319;28;20064;-85
2022/07/24 09:19:54;;;;;;;5.13;3.17;;;;;;;;;;5037181;28;20046;-85
2022/07/24 09:22:27;;;;;;;4.07;2.92;;;;;;;;;;5038642;28;20057;-85
2022/07/24 09:25:11;;;;;;;5.00;3.08;;;;;;;;;;5037072;28;20091;-85
2022/07/24 09:27:39;;;;;;;3.40;2.88;;;;;;;;;;5016623;28;20054;-85
2022/07/24 09:30:07;;;;;;;4.20;3.22;;;;;;;;;;5037082;28;20030;-84
2022/07/24 09:32:34;;;;;;;5.07;3.00;;;;;;;;;;5036383;28;20067;-85
2022/07/24 09:35:00;;;;;;;4.22;2.92;;;;;;;;;;5035919;28;20049;-84
2022/07/24 09:37:32;;;;;;;4.57;2.90;;;;;;;;;;5035290;28;20065;-84
2022/07/24 09:40:06;;;;;;;4.78;3.10;;;;;;;;;;5035906;28;20475;-83
2022/07/24 09:42:38;;;;;;;6.88;3.30;;;;;;;;;;5002377;28;20073;-84
2022/07/24 09:45:05;;;;;;;5.22;2.97;;;;;;;;;;5022754;28;20037;-84
2022/07/24 09:47:34;;;;;;;3.28;2.97;;;;;;;;;;5019184;28;20147;-85
2022/07/24 09:50:11;;;;;;;4.75;3.20;;;;;;;;;;5001536;28;20044;-85
2022/07/24 09:52:38;;;;;;;9.27;3.30;;;;;;;;;;5036520;28;20045;-84
2022/07/24 09:55:04;;;;;;;6.70;2.90;;;;;;;;;;5036404;28;20069;-86
2022/07/24 09:57:31;;;;;;;3.17;2.88;;;;;;;;;;5016888;28;20033;-88
2022/07/24 10:00:01;;;;;;;6.00;2.85;;;;;;;;;;5036265;28;20075;-84
2022/07/24 10:02:28;;;;;;;4.30;2.85;;;;;;;;;;5037281;28;20046;-86
2022/07/24 10:04:54;;;;;;;6.18;2.88;;;;;;;;;;5021799;28;20064;-85
2022/07/24 10:07:21;;;;;;;3.92;2.95;;;;;;;;;;5006678;28;20037;-85
2022/07/24 10:09:49;;;;;;;3.45;3.10;;;;;;;;;;5040857;28;20116;-85
2022/07/24 10:12:22;;;;;;;4.07;3.10;;;;;;;;;;5017804;28;20030;-86
2022/07/24 10:14:50;;;;;;;4.47;2.25;;;;;;;;;;5032270;28;20045;-84
2022/07/24 10:17:17;;;;;;;3.92;2.72;;;;;;;;;;5022004;28;20029;-83
2022/07/24 10:19:45;;;;;;;7.05;3.30;;;;;;;;;;5036596;28;20037;-85
2022/07/24 10:22:15;;;;;;;4.75;2.72;;;;;;;;;;5036843;28;20116;-83
2022/07/24 10:24:53;;;;;;;3.78;2.75;;;;;;;;;;5038281;28;20084;-84
2022/07/24 10:27:28;;;;;;;3.45;2.80;;;;;;;;;;5023029;28;20050;-84
2022/07/24 10:29:55;;;;;;;2.92;2.67;;;;;;;;;;5042951;28;20132;-83
2022/07/24 10:32:22;;;;;;;5.47;2.83;;;;;;;;;;5042845;28;20272;-84
2022/07/24 10:34:54;;;;;;;4.00;2.88;;;;;;;;;;5004752;28;20584;-84
2022/07/24 10:37:29;;;;;;;4.18;3.00;;;;;;;;;;5037837;28;20041;-85
2022/07/24 10:40:10;;;;;;;3.22;2.83;;;;;;;;;;5037098;28;20045;-83
2022/07/24 10:42:56;;;;;;;3.15;2.65;;;;;;;;;;5038080;28;20049;-84
2022/07/24 10:45:22;;;;;;;9.77;2.78;;;;;;;;;;5026544;28;20089;-83
2022/07/24 10:47:50;;;;;;;5.38;3.00;;;;;;;;;;5015644;28;20623;-84
2022/07/24 10:50:19;;;;;;;3.72;3.15;;;;;;;;;;5000370;28;20038;-84
2022/07/24 10:52:45;;;;;;;2.83;2.58;;;;;;;;;;5011895;28;20042;-84
2022/07/24 10:55:27;;;;;;;6.25;2.97;;;;;;;;;;5027997;28;20051;-85
2022/07/24 10:58:05;;;;;;;6.05;2.83;;;;;;;;;;4993347;28;20063;-84
2022/07/24 11:00:54;;;;;;;5.85;2.92;;;;;;;;;;5014232;28;20038;-83
2022/07/24 11:03:26;;;;;;;5.78;2.70;;;;;;;;;;5006256;28;20079;-85
2022/07/24 11:06:05;;;;;;;6.50;2.63;;;;;;;;;;5031610;28;20037;-83
2022/07/24 11:08:35;;;;;;;3.97;2.78;;;;;;;;;;5030617;28;20049;-84
2022/07/24 11:11:09;;;;;;;4.30;2.20;;;;;;;;;;5035367;28;20042;-84
2022/07/24 11:13:38;;;;;;;4.47;2.63;;;;;;;;;;5015054;28;20038;-85
2022/07/24 11:16:24;;;;;;;4.70;2.67;;;27.20;99.90;;;;;;5016726;28;20052;-84
2022/07/24 11:18:50;;;;;;;5.55;2.70;;;;;;;;;;5033163;28;20120;-83
2022/07/24 11:21:37;;;;;;;3.88;2.78;;;26.90;99.90;;;;;;5027369;28;20072;-84
2022/07/24 11:24:31;;;;;;;3.15;2.47;;;;;;;;;;5006262;28;20052;-85
2022/07/24 11:26:58;;;;;;;5.18;2.45;;;;;;;;;;5011281;28;20045;-83
2022/07/24 11:29:26;;;;;;;2.70;2.20;;;;;;;;;;5028746;28;20037;-84
2022/07/24 11:31:57;;;;;;;3.72;2.55;;;;;;;;;;5035673;28;20041;-82
2022/07/24 11:34:23;;;;;;;2.60;2.40;;;;;;;;;;5018107;28;20132;-82
2022/07/24 11:36:51;;;;;;;2.97;2.58;;;;;;;;;;5036392;28;20045;-84
2022/07/24 11:39:18;;;;;;;5.53;2.15;;;;;;;;;;5018475;28;20038;-83
2022/07/24 11:41:49;;;;;;;4.30;2.25;;;;;;;;;;5016051;28;20041;-83
2022/07/24 11:44:15;;;;;;;3.15;2.00;;;;;;;;;;5033673;28;20037;-84
2022/07/24 11:46:42;;;;;;;6.57;2.20;;;;;;;;;;5031323;28;20033;-81
2022/07/24 11:49:09;;;;;;;4.53;2.33;;;;;;;;;;5034720;28;20516;-83
2022/07/24 11:51:45;;;;;;;6.90;2.20;;;;;;;;;;5029227;28;20069;-84
2022/07/24 11:54:13;;;;;;;3.95;2.13;;;;;;;;;;5013351;28;20049;-83
2022/07/24 11:56:39;;;;;;;2.83;2.13;;;;;;;;;;5018375;28;20052;-85
2022/07/24 11:59:23;;;;;;;5.20;2.22;;;;;;;;;;5036178;28;20057;-84
2022/07/24 12:02:08;;;;;;;5.32;2.63;;;;;;;;;;5036955;28;20041;-84
2022/07/24 12:04:34;;;;;;;7.85;2.42;;;;;;;;;;5035718;28;20044;-84
2022/07/24 12:07:01;;;;;;;3.20;2.15;;;;;;;;;;5017148;28;20052;-83
2022/07/24 12:09:27;;;;;;;2.70;2.30;;;;;;;;;;5036024;28;20048;-85
2022/07/24 12:11:53;;;;;;;3.83;1.85;;;;;;;;;;5022997;28;20064;-83
2022/07/24 12:14:21;;;;;;;4.32;2.50;;;;;;;;;;5037029;28;20101;-84
2022/07/24 12:16:56;;;;;;;3.83;2.20;;;;;;;;;;5034276;28;20112;-85
2022/07/24 12:19:24;;;;;;;2.92;2.08;;;;;;;;;;5019186;28;20056;-85
2022/07/24 12:21:51;;;;;;;6.28;2.30;;;;;;;;;;5033234;28;20064;-85
2022/07/24 12:27:52;;;;;;;7.38;2.28;;;;;;;;;;5008051;28;20058;-85
2022/07/24 12:30:18;;;;;;;3.78;2.70;;;;;;;;;;5006021;28;20054;-83
2022/07/24 12:33:04;;;;;;;2.88;2.40;;;;;;;;;;5013058;28;20778;-84
2022/07/24 12:35:32;;;;;;;5.40;2.38;;;;;;;;;;5015444;28;20034;-84
2022/07/24 12:37:58;;;;;;;2.65;2.40;;;;;;;;;;4997038;28;20060;-84
2022/07/24 12:40:28;;;;;;;3.08;2.33;;;;;;;;;;5010202;28;20037;-84
2022/07/24 12:42:58;;;;;;;2.38;2.17;;;;;;;;;;5013306;28;20104;-84
2022/07/24 12:45:27;;;;;;;2.30;2.08;;;;;;;;;;5014650;28;20058;-87
2022/07/24 12:48:06;;;;;;;5.47;2.08;;;;;;;;;;4994286;28;20041;-85
2022/07/24 12:50:32;;;;;;;4.35;2.33;;;;;;;;;;5016749;28;20092;-83
2022/07/24 12:53:08;;;;;;;3.63;2.33;;;;;;;;;;5013703;28;20129;-86
2022/07/24 12:55:35;;;;;;;6.20;2.40;;;;;;;;;;5012362;28;20093;-85
2022/07/24 12:58:02;;;;;;;3.90;2.22;;;;;;;;;;5015417;28;20033;-85
2022/07/24 13:00:29;;;;;;;3.63;2.20;;;;;;;;;;5016349;28;20033;-84
2022/07/24 13:03:01;;;;;;;2.53;2.33;;;;;;;;;;5010222;28;20049;-84
2022/07/24 13:05:37;;;;;;;4.13;2.03;;;;;;;;;;5014202;28;20073;-85
2022/07/24 13:08:03;;;;;;;4.63;2.05;;;;;;;;;;5012594;28;20088;-83
2022/07/24 13:10:30;;;;;;;4.57;2.00;;;;;;;;;;5015034;28;20046;-85
2022/07/24 13:12:56;;;;;;;6.25;2.30;;;;;;;;;;5015790;28;20077;-84
2022/07/24 13:15:22;;;;;;;3.35;2.45;;;;;;;;;;5015694;28;20481;-84
2022/07/24 13:17:48;;;;;;;4.28;2.10;;;;;;;;;;5014922;28;20045;-84
2022/07/24 13:20:14;;;;;;;3.65;2.20;;;;;;;;;;5015477;28;20045;-83
2022/07/24 13:22:40;;;;;;;3.42;2.17;;;;;;;;;;4997167;28;20046;-84
2022/07/24 13:25:07;;;;;;;2.53;1.88;;;;;;;;;;5013514;28;20035;-84
2022/07/24 13:27:36;;;;;;;4.85;2.10;;;;;;;;;;5019843;28;20909;-85
2022/07/24 13:30:03;;;;;;;4.38;2.25;;;;;;;;;;5014910;28;20098;-84
2022/07/24 13:32:29;;;;;;;2.53;2.10;;;;;;;;;;5015963;28;20044;-84
2022/07/24 13:34:55;;;;;;;3.05;2.40;;;;;;;;;;5020260;28;20041;-85
2022/07/24 13:37:22;;;;;;;5.10;2.25;;;;;;;;;;5001514;28;20053;-84
2022/07/24 13:39:48;;;;;;;4.57;2.40;;;;;;;;;;5039262;28;20041;-84
2022/07/24 13:42:14;;;;;;;3.55;2.03;;;;;;;;;;5038586;28;20045;-84
2022/07/24 13:44:40;;;;;;;4.13;1.95;;;;;;;;;;5026511;28;20049;-85
2022/07/24 13:47:08;;;;;;;4.65;2.30;;;;;;;;;;5017738;28;20049;-85
2022/07/24 13:49:34;;;;;;;4.00;2.20;;;;;;;;;;5036416;28;20108;-86
2022/07/24 13:52:00;;;;;;;2.35;2.22;;;;;;;;;;5036440;28;20080;-85
2022/07/24 13:54:26;;;;;;;6.30;2.40;;;;;;;;;;5039425;28;20033;-87
2022/07/24 13:56:53;;;;;;;3.80;2.17;;;;;;;;;;5037122;28;20046;-85
2022/07/24 13:59:19;;;;;;;4.72;2.15;;;;;;;;;;5018591;28;20497;-84
2022/07/24 14:01:45;;;;;;;5.55;2.10;;;;;;;;;;5038443;28;20041;-84
2022/07/24 14:04:12;;;;;;;4.20;2.15;;;;;;;;;;5018694;28;20046;-84
2022/07/24 14:06:38;;;;;;;4.18;2.20;;;;;;;;;;5019966;28;20555;-83
2022/07/24 14:09:04;;;;;;;5.07;2.50;;;;;;;;;;5036016;28;20091;-85
2022/07/24 14:11:31;;;;;;;2.90;2.00;;;;;;;;;;5036170;28;20049;-83
2022/07/24 14:13:57;;;;;;;3.65;2.00;;;;;;;;;;5037703;28;20037;-84
2022/07/24 14:16:23;;;;;;;3.92;2.10;;;;;;;;;;5018006;28;20050;-83
2022/07/24 14:19:05;;;;;;;3.70;2.20;;;;;;;;;;5018876;28;20770;-84
2022/07/24 14:21:33;;;;;;;2.35;2.10;;;;;;;;;;5034898;28;20148;-84
2022/07/24 14:24:00;;;;;;;3.70;2.28;;;;;;;;;;4985469;28;20041;-83
2022/07/24 14:26:26;;;;;;;4.13;2.17;;;;;;;;;;5014838;28;20057;-83
2022/07/24 14:28:52;;;;;;;9.93;5.72;;;;;;;;;;5013987;28;20076;-83
2022/07/24 14:31:18;;;;;;;3.80;2.45;;;;;;;;;;5035557;28;20057;-85
2022/07/24 14:33:44;;;;;;;7.40;4.28;;;;;;;;;;5011958;28;20092;-84
2022/07/24 14:36:10;;;;;;;6.05;2.85;;;;;;;;;;5018983;28;20077;-84
2022/07/24 14:38:36;;;;;;;3.90;1.95;;;;;;;;;;5011250;28;20037;-83
2022/07/24 14:41:03;;;;;;;2.97;2.30;;;;;;;;;;5002133;28;20623;-83
2022/07/24 14:43:29;;;;;;;13.65;6.80;;;;;;;;;;5033584;28;20049;-84
2022/07/24 14:45:55;;;;;;;2.50;2.25;;;;;;;;;;5035714;28;20125;-83